sensor_id;sensor_type;location;lat;lon;timestamp;P1;durP1;ratioP1;P2;durP2;ratioP2
12296;SDS011;6211;49.124;9.152;2023-04-24T00:02:12;0.38;;;0.38;;
12296;SDS011;6211;49.124;9.152;2023-04-24T00:04:39;0.65;;;0.40;;
12296;SDS011;6211;49.124;9.152;2023-04-24T00:07:09;0.63;;;0.45;;
12296;SDS011;6211;49.124;9.152;2023-04-24T00:09:38;0.60;;;0.50;;
12296;SDS011;6211;49.124;9.152;2023-04-24T00:12:05;0.50;;;0.50;;
12296;SDS011;6211;49.124;9.152;2023-04-24T00:14:32;0.60;;;0.60;;
12296;SDS011;6211;49.124;9.152;2023-04-24T00:16:59;0.52;;;0.52;;
12296;SDS011;6211;49.124;9.152;2023-04-24T00:19:27;0.40;;;0.40;;
12296;SDS011;6211;49.124;9.152;2023-04-24T00:21:54;0.40;;;0.40;;
12296;SDS011;6211;49.124;9.152;2023-04-24T00:24:22;0.30;;;0.30;;
12296;SDS011;6211;49.124;9.152;2023-04-24T00:26:50;0.60;;;0.60;;
12296;SDS011;6211;49.124;9.152;2023-04-24T00:29:17;0.40;;;0.40;;
12296;SDS011;6211;49.124;9.152;2023-04-24T00:31:44;0.75;;;0.60;;
12296;SDS011;6211;49.124;9.152;2023-04-24T00:34:11;0.60;;;0.60;;
12296;SDS011;6211;49.124;9.152;2023-04-24T00:36:38;0.50;;;0.50;;
12296;SDS011;6211;49.124;9.152;2023-04-24T00:39:06;2.30;;;0.70;;
12296;SDS011;6211;49.124;9.152;2023-04-24T00:41:33;0.30;;;0.30;;
12296;SDS011;6211;49.124;9.152;2023-04-24T00:44:02;0.55;;;0.55;;
12296;SDS011;6211;49.124;9.152;2023-04-24T00:46:29;0.70;;;0.70;;
12296;SDS011;6211;49.124;9.152;2023-04-24T00:48:57;0.50;;;0.50;;
12296;SDS011;6211;49.124;9.152;2023-04-24T00:51:25;1.25;;;0.70;;
12296;SDS011;6211;49.124;9.152;2023-04-24T00:53:52;1.77;;;0.85;;
12296;SDS011;6211;49.124;9.152;2023-04-24T00:56:20;1.67;;;0.60;;
12296;SDS011;6211;49.124;9.152;2023-04-24T00:58:48;1.13;;;0.70;;
12296;SDS011;6211;49.124;9.152;2023-04-24T01:01:17;0.40;;;0.40;;
12296;SDS011;6211;49.124;9.152;2023-04-24T01:03:45;0.60;;;0.60;;
12296;SDS011;6211;49.124;9.152;2023-04-24T01:06:13;0.50;;;0.50;;
12296;SDS011;6211;49.124;9.152;2023-04-24T01:08:40;0.50;;;0.50;;
12296;SDS011;6211;49.124;9.152;2023-04-24T01:11:08;1.27;;;0.70;;
12296;SDS011;6211;49.124;9.152;2023-04-24T01:13:35;1.38;;;0.68;;
12296;SDS011;6211;49.124;9.152;2023-04-24T01:16:02;0.60;;;0.60;;
12296;SDS011;6211;49.124;9.152;2023-04-24T01:18:30;0.40;;;0.40;;
12296;SDS011;6211;49.124;9.152;2023-04-24T01:20:58;0.50;;;0.50;;
12296;SDS011;6211;49.124;9.152;2023-04-24T01:23:27;0.30;;;0.30;;
12296;SDS011;6211;49.124;9.152;2023-04-24T01:25:54;0.60;;;0.60;;
12296;SDS011;6211;49.124;9.152;2023-04-24T01:28:21;0.60;;;0.50;;
12296;SDS011;6211;49.124;9.152;2023-04-24T01:30:48;1.08;;;0.70;;
12296;SDS011;6211;49.124;9.152;2023-04-24T01:33:15;0.82;;;0.60;;
12296;SDS011;6211;49.124;9.152;2023-04-24T01:35:43;0.60;;;0.60;;
12296;SDS011;6211;49.124;9.152;2023-04-24T01:38:10;2.65;;;0.70;;
12296;SDS011;6211;49.124;9.152;2023-04-24T01:40:38;0.32;;;0.32;;
12296;SDS011;6211;49.124;9.152;2023-04-24T01:43:06;0.70;;;0.70;;
12296;SDS011;6211;49.124;9.152;2023-04-24T01:45:33;0.55;;;0.50;;
12296;SDS011;6211;49.124;9.152;2023-04-24T01:48:00;0.43;;;0.43;;
12296;SDS011;6211;49.124;9.152;2023-04-24T01:50:27;2.70;;;0.75;;
12296;SDS011;6211;49.124;9.152;2023-04-24T01:52:55;2.10;;;0.70;;
12296;SDS011;6211;49.124;9.152;2023-04-24T01:55:22;0.40;;;0.40;;
12296;SDS011;6211;49.124;9.152;2023-04-24T01:57:51;0.75;;;0.65;;
12296;SDS011;6211;49.124;9.152;2023-04-24T02:00:19;0.82;;;0.80;;
12296;SDS011;6211;49.124;9.152;2023-04-24T02:02:46;5.97;;;1.00;;
12296;SDS011;6211;49.124;9.152;2023-04-24T02:05:13;2.05;;;0.70;;
12296;SDS011;6211;49.124;9.152;2023-04-24T02:07:40;2.35;;;0.63;;
12296;SDS011;6211;49.124;9.152;2023-04-24T02:10:07;0.70;;;0.70;;
12296;SDS011;6211;49.124;9.152;2023-04-24T02:12:35;0.55;;;0.55;;
12296;SDS011;6211;49.124;9.152;2023-04-24T02:15:03;1.75;;;0.80;;
12296;SDS011;6211;49.124;9.152;2023-04-24T02:17:31;0.50;;;0.50;;
12296;SDS011;6211;49.124;9.152;2023-04-24T02:19:58;0.80;;;0.80;;
12296;SDS011;6211;49.124;9.152;2023-04-24T02:22:25;0.60;;;0.60;;
12296;SDS011;6211;49.124;9.152;2023-04-24T02:24:52;1.23;;;0.65;;
12296;SDS011;6211;49.124;9.152;2023-04-24T02:27:19;0.70;;;0.70;;
12296;SDS011;6211;49.124;9.152;2023-04-24T02:29:46;0.55;;;0.55;;
12296;SDS011;6211;49.124;9.152;2023-04-24T02:32:15;1.40;;;0.85;;
12296;SDS011;6211;49.124;9.152;2023-04-24T02:34:42;2.72;;;0.85;;
12296;SDS011;6211;49.124;9.152;2023-04-24T02:37:09;2.17;;;0.60;;
12296;SDS011;6211;49.124;9.152;2023-04-24T02:39:36;0.40;;;0.40;;
12296;SDS011;6211;49.124;9.152;2023-04-24T02:42:03;0.63;;;0.63;;
12296;SDS011;6211;49.124;9.152;2023-04-24T02:44:30;0.60;;;0.60;;
12296;SDS011;6211;49.124;9.152;2023-04-24T02:46:57;0.75;;;0.75;;
12296;SDS011;6211;49.124;9.152;2023-04-24T02:49:26;3.40;;;0.85;;
12296;SDS011;6211;49.124;9.152;2023-04-24T02:51:53;0.50;;;0.50;;
12296;SDS011;6211;49.124;9.152;2023-04-24T02:54:20;0.55;;;0.55;;
12296;SDS011;6211;49.124;9.152;2023-04-24T02:56:47;1.45;;;0.65;;
12296;SDS011;6211;49.124;9.152;2023-04-24T02:59:14;0.25;;;0.25;;
12296;SDS011;6211;49.124;9.152;2023-04-24T03:01:41;0.50;;;0.50;;
12296;SDS011;6211;49.124;9.152;2023-04-24T03:04:08;0.43;;;0.43;;
12296;SDS011;6211;49.124;9.152;2023-04-24T03:06:37;0.70;;;0.70;;
12296;SDS011;6211;49.124;9.152;2023-04-24T03:09:04;0.45;;;0.45;;
12296;SDS011;6211;49.124;9.152;2023-04-24T03:11:32;0.60;;;0.60;;
12296;SDS011;6211;49.124;9.152;2023-04-24T03:13:59;0.90;;;0.90;;
12296;SDS011;6211;49.124;9.152;2023-04-24T03:16:26;0.80;;;0.70;;
12296;SDS011;6211;49.124;9.152;2023-04-24T03:18:53;2.00;;;0.80;;
12296;SDS011;6211;49.124;9.152;2023-04-24T03:21:20;0.50;;;0.50;;
12296;SDS011;6211;49.124;9.152;2023-04-24T03:23:48;0.40;;;0.40;;
12296;SDS011;6211;49.124;9.152;2023-04-24T03:26:15;0.50;;;0.50;;
12296;SDS011;6211;49.124;9.152;2023-04-24T03:28:43;2.13;;;0.60;;
12296;SDS011;6211;49.124;9.152;2023-04-24T03:31:10;0.60;;;0.60;;
12296;SDS011;6211;49.124;9.152;2023-04-24T03:33:37;0.43;;;0.43;;
12296;SDS011;6211;49.124;9.152;2023-04-24T03:36:04;1.75;;;0.40;;
12296;SDS011;6211;49.124;9.152;2023-04-24T03:38:31;0.40;;;0.40;;
12296;SDS011;6211;49.124;9.152;2023-04-24T03:41:00;0.60;;;0.60;;
12296;SDS011;6211;49.124;9.152;2023-04-24T03:43:27;0.57;;;0.50;;
12296;SDS011;6211;49.124;9.152;2023-04-24T03:45:54;4.80;;;0.85;;
12296;SDS011;6211;49.124;9.152;2023-04-24T03:48:21;0.70;;;0.70;;
12296;SDS011;6211;49.124;9.152;2023-04-24T03:50:48;1.63;;;0.73;;
12296;SDS011;6211;49.124;9.152;2023-04-24T03:53:15;1.30;;;0.63;;
12296;SDS011;6211;49.124;9.152;2023-04-24T03:55:42;0.43;;;0.43;;
12296;SDS011;6211;49.124;9.152;2023-04-24T03:58:11;0.73;;;0.50;;
12296;SDS011;6211;49.124;9.152;2023-04-24T04:00:39;0.52;;;0.52;;
12296;SDS011;6211;49.124;9.152;2023-04-24T04:03:06;1.60;;;0.52;;
12296;SDS011;6211;49.124;9.152;2023-04-24T04:05:33;0.45;;;0.45;;
12296;SDS011;6211;49.124;9.152;2023-04-24T04:08:00;0.40;;;0.40;;
12296;SDS011;6211;49.124;9.152;2023-04-24T04:10:27;0.63;;;0.63;;
12296;SDS011;6211;49.124;9.152;2023-04-24T04:12:54;0.45;;;0.45;;
12296;SDS011;6211;49.124;9.152;2023-04-24T04:15:23;1.90;;;0.50;;
12296;SDS011;6211;49.124;9.152;2023-04-24T04:17:50;0.50;;;0.50;;
12296;SDS011;6211;49.124;9.152;2023-04-24T04:20:17;0.60;;;0.60;;
12296;SDS011;6211;49.124;9.152;2023-04-24T04:22:44;0.60;;;0.60;;
12296;SDS011;6211;49.124;9.152;2023-04-24T04:25:11;1.70;;;0.52;;
12296;SDS011;6211;49.124;9.152;2023-04-24T04:27:38;1.40;;;0.60;;
12296;SDS011;6211;49.124;9.152;2023-04-24T04:30:07;0.95;;;0.85;;
12296;SDS011;6211;49.124;9.152;2023-04-24T04:32:36;0.60;;;0.60;;
12296;SDS011;6211;49.124;9.152;2023-04-24T04:35:03;0.80;;;0.60;;
12296;SDS011;6211;49.124;9.152;2023-04-24T04:37:31;1.05;;;0.93;;
12296;SDS011;6211;49.124;9.152;2023-04-24T04:39:58;0.85;;;0.85;;
12296;SDS011;6211;49.124;9.152;2023-04-24T04:42:25;0.80;;;0.80;;
12296;SDS011;6211;49.124;9.152;2023-04-24T04:44:53;0.80;;;0.80;;
12296;SDS011;6211;49.124;9.152;2023-04-24T04:47:21;0.95;;;0.88;;
12296;SDS011;6211;49.124;9.152;2023-04-24T04:49:50;1.10;;;1.00;;
12296;SDS011;6211;49.124;9.152;2023-04-24T04:52:17;1.35;;;1.25;;
12296;SDS011;6211;49.124;9.152;2023-04-24T04:54:44;1.30;;;1.20;;
12296;SDS011;6211;49.124;9.152;2023-04-24T04:57:12;1.02;;;0.95;;
12296;SDS011;6211;49.124;9.152;2023-04-24T04:59:39;0.85;;;0.85;;
12296;SDS011;6211;49.124;9.152;2023-04-24T05:02:07;3.92;;;1.27;;
12296;SDS011;6211;49.124;9.152;2023-04-24T05:04:34;1.27;;;1.17;;
12296;SDS011;6211;49.124;9.152;2023-04-24T05:07:02;4.13;;;1.40;;
12296;SDS011;6211;49.124;9.152;2023-04-24T05:09:30;1.25;;;1.17;;
12296;SDS011;6211;49.124;9.152;2023-04-24T05:11:57;0.90;;;0.90;;
12296;SDS011;6211;49.124;9.152;2023-04-24T05:14:25;1.08;;;0.98;;
12296;SDS011;6211;49.124;9.152;2023-04-24T05:16:52;2.60;;;1.40;;
12296;SDS011;6211;49.124;9.152;2023-04-24T05:19:19;0.77;;;0.77;;
12296;SDS011;6211;49.124;9.152;2023-04-24T05:21:46;0.85;;;0.85;;
12296;SDS011;6211;49.124;9.152;2023-04-24T05:24:15;2.30;;;1.20;;
12296;SDS011;6211;49.124;9.152;2023-04-24T05:26:42;1.13;;;1.02;;
12296;SDS011;6211;49.124;9.152;2023-04-24T05:29:09;1.17;;;1.10;;
12296;SDS011;6211;49.124;9.152;2023-04-24T05:31:36;1.92;;;1.17;;
12296;SDS011;6211;49.124;9.152;2023-04-24T05:34:03;1.35;;;1.15;;
12296;SDS011;6211;49.124;9.152;2023-04-24T05:36:31;2.30;;;1.30;;
12296;SDS011;6211;49.124;9.152;2023-04-24T05:38:58;2.05;;;1.35;;
12296;SDS011;6211;49.124;9.152;2023-04-24T05:41:26;1.23;;;1.20;;
12296;SDS011;6211;49.124;9.152;2023-04-24T05:43:53;1.95;;;1.20;;
12296;SDS011;6211;49.124;9.152;2023-04-24T05:46:21;1.58;;;1.48;;
12296;SDS011;6211;49.124;9.152;2023-04-24T05:48:48;1.30;;;1.20;;
12296;SDS011;6211;49.124;9.152;2023-04-24T05:51:15;1.65;;;1.52;;
12296;SDS011;6211;49.124;9.152;2023-04-24T05:53:42;1.60;;;1.42;;
12296;SDS011;6211;49.124;9.152;2023-04-24T05:56:09;1.50;;;1.17;;
12296;SDS011;6211;49.124;9.152;2023-04-24T05:58:38;1.45;;;1.23;;
12296;SDS011;6211;49.124;9.152;2023-04-24T06:01:05;1.63;;;1.42;;
12296;SDS011;6211;49.124;9.152;2023-04-24T06:03:32;2.03;;;1.23;;
12296;SDS011;6211;49.124;9.152;2023-04-24T06:05:59;1.58;;;1.40;;
12296;SDS011;6211;49.124;9.152;2023-04-24T06:08:26;2.17;;;1.58;;
12296;SDS011;6211;49.124;9.152;2023-04-24T06:10:53;2.33;;;1.83;;
12296;SDS011;6211;49.124;9.152;2023-04-24T06:13:20;3.88;;;1.20;;
12296;SDS011;6211;49.124;9.152;2023-04-24T06:15:49;2.30;;;1.30;;
12296;SDS011;6211;49.124;9.152;2023-04-24T06:18:16;2.17;;;1.63;;
12296;SDS011;6211;49.124;9.152;2023-04-24T06:20:43;3.08;;;1.40;;
12296;SDS011;6211;49.124;9.152;2023-04-24T06:23:10;1.65;;;1.55;;
12296;SDS011;6211;49.124;9.152;2023-04-24T06:25:37;4.53;;;1.55;;
12296;SDS011;6211;49.124;9.152;2023-04-24T06:28:04;2.03;;;1.75;;
12296;SDS011;6211;49.124;9.152;2023-04-24T06:30:31;4.13;;;1.60;;
12296;SDS011;6211;49.124;9.152;2023-04-24T06:33:00;1.30;;;1.20;;
12296;SDS011;6211;49.124;9.152;2023-04-24T06:35:27;1.17;;;1.08;;
12296;SDS011;6211;49.124;9.152;2023-04-24T06:37:54;1.38;;;1.27;;
12296;SDS011;6211;49.124;9.152;2023-04-24T06:40:22;1.92;;;1.38;;
12296;SDS011;6211;49.124;9.152;2023-04-24T06:42:49;5.18;;;1.60;;
12296;SDS011;6211;49.124;9.152;2023-04-24T06:45:16;1.38;;;1.23;;
12296;SDS011;6211;49.124;9.152;2023-04-24T06:47:43;1.70;;;1.60;;
12296;SDS011;6211;49.124;9.152;2023-04-24T06:50:12;1.40;;;1.30;;
12296;SDS011;6211;49.124;9.152;2023-04-24T06:52:39;1.33;;;1.23;;
12296;SDS011;6211;49.124;9.152;2023-04-24T06:55:07;2.28;;;1.40;;
12296;SDS011;6211;49.124;9.152;2023-04-24T06:57:36;1.83;;;1.05;;
12296;SDS011;6211;49.124;9.152;2023-04-24T07:00:03;1.40;;;1.30;;
12296;SDS011;6211;49.124;9.152;2023-04-24T07:02:31;1.13;;;1.02;;
12296;SDS011;6211;49.124;9.152;2023-04-24T07:04:58;1.30;;;1.20;;
12296;SDS011;6211;49.124;9.152;2023-04-24T07:07:27;1.40;;;1.30;;
12296;SDS011;6211;49.124;9.152;2023-04-24T07:09:54;1.50;;;1.05;;
12296;SDS011;6211;49.124;9.152;2023-04-24T07:12:21;1.55;;;1.45;;
12296;SDS011;6211;49.124;9.152;2023-04-24T07:14:50;2.13;;;1.20;;
12296;SDS011;6211;49.124;9.152;2023-04-24T07:17:17;1.50;;;1.40;;
12296;SDS011;6211;49.124;9.152;2023-04-24T07:19:44;1.27;;;1.17;;
12296;SDS011;6211;49.124;9.152;2023-04-24T07:22:11;2.53;;;1.20;;
12296;SDS011;6211;49.124;9.152;2023-04-24T07:24:43;1.90;;;1.15;;
12296;SDS011;6211;49.124;9.152;2023-04-24T07:27:10;1.38;;;1.27;;
12296;SDS011;6211;49.124;9.152;2023-04-24T07:29:39;1.02;;;1.00;;
12296;SDS011;6211;49.124;9.152;2023-04-24T07:32:06;1.45;;;1.17;;
12296;SDS011;6211;49.124;9.152;2023-04-24T07:34:34;0.85;;;0.85;;
12296;SDS011;6211;49.124;9.152;2023-04-24T07:37:01;1.25;;;1.20;;
12296;SDS011;6211;49.124;9.152;2023-04-24T07:39:28;1.00;;;0.95;;
12296;SDS011;6211;49.124;9.152;2023-04-24T07:41:57;2.28;;;1.42;;
12296;SDS011;6211;49.124;9.152;2023-04-24T07:44:24;1.58;;;1.10;;
12296;SDS011;6211;49.124;9.152;2023-04-24T07:46:51;0.90;;;0.82;;
12296;SDS011;6211;49.124;9.152;2023-04-24T07:49:19;0.80;;;0.80;;
12296;SDS011;6211;49.124;9.152;2023-04-24T07:51:46;1.15;;;1.10;;
12296;SDS011;6211;49.124;9.152;2023-04-24T07:54:13;2.22;;;0.77;;
12296;SDS011;6211;49.124;9.152;2023-04-24T07:56:40;1.00;;;0.85;;
12296;SDS011;6211;49.124;9.152;2023-04-24T07:59:09;0.90;;;0.90;;
12296;SDS011;6211;49.124;9.152;2023-04-24T08:01:36;1.25;;;1.15;;
12296;SDS011;6211;49.124;9.152;2023-04-24T08:04:04;0.70;;;0.70;;
12296;SDS011;6211;49.124;9.152;2023-04-24T08:06:31;0.90;;;0.90;;
12296;SDS011;6211;49.124;9.152;2023-04-24T08:08:58;1.52;;;1.42;;
12296;SDS011;6211;49.124;9.152;2023-04-24T08:11:25;1.30;;;1.02;;
12296;SDS011;6211;49.124;9.152;2023-04-24T08:13:52;1.77;;;1.08;;
12296;SDS011;6211;49.124;9.152;2023-04-24T08:16:21;0.70;;;0.70;;
12296;SDS011;6211;49.124;9.152;2023-04-24T08:18:49;0.85;;;0.85;;
12296;SDS011;6211;49.124;9.152;2023-04-24T08:21:16;0.80;;;0.80;;
12296;SDS011;6211;49.124;9.152;2023-04-24T08:23:45;0.80;;;0.68;;
12296;SDS011;6211;49.124;9.152;2023-04-24T08:26:12;0.88;;;0.77;;
12296;SDS011;6211;49.124;9.152;2023-04-24T08:28:39;1.00;;;0.80;;
12296;SDS011;6211;49.124;9.152;2023-04-24T08:31:06;1.15;;;1.05;;
12296;SDS011;6211;49.124;9.152;2023-04-24T08:33:35;0.90;;;0.82;;
12296;SDS011;6211;49.124;9.152;2023-04-24T08:36:02;1.15;;;0.90;;
12296;SDS011;6211;49.124;9.152;2023-04-24T08:38:29;1.35;;;0.80;;
12296;SDS011;6211;49.124;9.152;2023-04-24T08:40:57;1.83;;;1.13;;
12296;SDS011;6211;49.124;9.152;2023-04-24T08:43:25;1.08;;;0.98;;
12296;SDS011;6211;49.124;9.152;2023-04-24T08:45:54;1.42;;;1.15;;
12296;SDS011;6211;49.124;9.152;2023-04-24T08:48:22;1.00;;;0.90;;
12296;SDS011;6211;49.124;9.152;2023-04-24T08:50:51;3.28;;;0.70;;
12296;SDS011;6211;49.124;9.152;2023-04-24T08:53:18;0.90;;;0.90;;
12296;SDS011;6211;49.124;9.152;2023-04-24T08:55:46;0.75;;;0.75;;
12296;SDS011;6211;49.124;9.152;2023-04-24T08:58:14;1.00;;;0.85;;
12296;SDS011;6211;49.124;9.152;2023-04-24T09:00:41;0.95;;;0.90;;
12296;SDS011;6211;49.124;9.152;2023-04-24T09:03:11;0.80;;;0.80;;
12296;SDS011;6211;49.124;9.152;2023-04-24T09:05:40;2.38;;;0.98;;
12296;SDS011;6211;49.124;9.152;2023-04-24T09:08:12;1.38;;;0.70;;
12296;SDS011;6211;49.124;9.152;2023-04-24T09:10:39;0.90;;;0.80;;
12296;SDS011;6211;49.124;9.152;2023-04-24T09:13:07;5.97;;;0.90;;
12296;SDS011;6211;49.124;9.152;2023-04-24T09:15:35;0.60;;;0.60;;
12296;SDS011;6211;49.124;9.152;2023-04-24T09:18:02;0.40;;;0.40;;
12296;SDS011;6211;49.124;9.152;2023-04-24T09:20:29;0.75;;;0.60;;
12296;SDS011;6211;49.124;9.152;2023-04-24T09:22:56;0.75;;;0.75;;
12296;SDS011;6211;49.124;9.152;2023-04-24T09:25:26;0.80;;;0.80;;
12296;SDS011;6211;49.124;9.152;2023-04-24T09:28:00;2.83;;;1.08;;
12296;SDS011;6211;49.124;9.152;2023-04-24T09:30:27;0.55;;;0.55;;
12296;SDS011;6211;49.124;9.152;2023-04-24T09:33:09;0.60;;;0.60;;
12296;SDS011;6211;49.124;9.152;2023-04-24T09:35:36;0.55;;;0.55;;
12296;SDS011;6211;49.124;9.152;2023-04-24T09:38:06;0.50;;;0.50;;
12296;SDS011;6211;49.124;9.152;2023-04-24T09:40:35;1.08;;;0.65;;
12296;SDS011;6211;49.124;9.152;2023-04-24T09:43:02;0.50;;;0.50;;
12296;SDS011;6211;49.124;9.152;2023-04-24T09:45:35;0.50;;;0.50;;
12296;SDS011;6211;49.124;9.152;2023-04-24T09:48:02;0.75;;;0.70;;
12296;SDS011;6211;49.124;9.152;2023-04-24T09:50:30;0.90;;;0.80;;
12296;SDS011;6211;49.124;9.152;2023-04-24T09:53:01;0.70;;;0.70;;
12296;SDS011;6211;49.124;9.152;2023-04-24T09:55:28;1.27;;;0.60;;
12296;SDS011;6211;49.124;9.152;2023-04-24T09:57:58;0.63;;;0.60;;
12296;SDS011;6211;49.124;9.152;2023-04-24T10:00:26;1.05;;;0.90;;
12296;SDS011;6211;49.124;9.152;2023-04-24T10:02:57;0.90;;;0.90;;
12296;SDS011;6211;49.124;9.152;2023-04-24T10:05:25;1.05;;;0.90;;
12296;SDS011;6211;49.124;9.152;2023-04-24T10:07:55;1.00;;;1.00;;
12296;SDS011;6211;49.124;9.152;2023-04-24T10:10:23;3.38;;;1.02;;
12296;SDS011;6211;49.124;9.152;2023-04-24T10:12:50;0.90;;;0.90;;
12296;SDS011;6211;49.124;9.152;2023-04-24T10:15:19;0.93;;;0.90;;
12296;SDS011;6211;49.124;9.152;2023-04-24T10:17:47;2.15;;;1.10;;
12296;SDS011;6211;49.124;9.152;2023-04-24T10:20:17;1.30;;;1.20;;
12296;SDS011;6211;49.124;9.152;2023-04-24T10:22:44;2.70;;;1.23;;
12296;SDS011;6211;49.124;9.152;2023-04-24T10:25:13;1.20;;;1.10;;
12296;SDS011;6211;49.124;9.152;2023-04-24T10:27:41;2.67;;;1.70;;
12296;SDS011;6211;49.124;9.152;2023-04-24T10:30:09;1.52;;;1.20;;
12296;SDS011;6211;49.124;9.152;2023-04-24T10:32:39;2.85;;;1.20;;
12296;SDS011;6211;49.124;9.152;2023-04-24T10:35:06;2.58;;;1.67;;
12296;SDS011;6211;49.124;9.152;2023-04-24T10:37:34;1.10;;;1.00;;
12296;SDS011;6211;49.124;9.152;2023-04-24T10:40:04;1.52;;;1.00;;
12296;SDS011;6211;49.124;9.152;2023-04-24T10:42:31;2.40;;;1.30;;
12296;SDS011;6211;49.124;9.152;2023-04-24T10:44:59;1.27;;;0.98;;
12296;SDS011;6211;49.124;9.152;2023-04-24T10:47:27;1.38;;;1.27;;
12296;SDS011;6211;49.124;9.152;2023-04-24T10:49:55;1.30;;;1.20;;
12296;SDS011;6211;49.124;9.152;2023-04-24T10:52:37;1.58;;;1.48;;
12296;SDS011;6211;49.124;9.152;2023-04-24T10:55:10;1.63;;;1.40;;
12296;SDS011;6211;49.124;9.152;2023-04-24T10:57:39;1.15;;;1.10;;
12296;SDS011;6211;49.124;9.152;2023-04-24T11:00:10;1.15;;;1.10;;
12296;SDS011;6211;49.124;9.152;2023-04-24T11:02:40;1.42;;;1.33;;
12296;SDS011;6211;49.124;9.152;2023-04-24T11:05:14;1.60;;;1.50;;
12296;SDS011;6211;49.124;9.152;2023-04-24T11:10:28;1.65;;;1.40;;
12296;SDS011;6211;49.124;9.152;2023-04-24T11:12:55;1.48;;;1.38;;
12296;SDS011;6211;49.124;9.152;2023-04-24T11:15:22;1.33;;;1.23;;
12296;SDS011;6211;49.124;9.152;2023-04-24T11:17:49;1.85;;;1.08;;
12296;SDS011;6211;49.124;9.152;2023-04-24T11:20:17;2.08;;;1.27;;
12296;SDS011;6211;49.124;9.152;2023-04-24T11:22:46;0.88;;;0.88;;
12296;SDS011;6211;49.124;9.152;2023-04-24T11:25:13;2.53;;;1.30;;
12296;SDS011;6211;49.124;9.152;2023-04-24T11:27:42;0.95;;;0.95;;
12296;SDS011;6211;49.124;9.152;2023-04-24T11:30:11;1.45;;;1.33;;
12296;SDS011;6211;49.124;9.152;2023-04-24T11:32:41;1.15;;;1.08;;
12296;SDS011;6211;49.124;9.152;2023-04-24T11:35:10;1.38;;;1.20;;
12296;SDS011;6211;49.124;9.152;2023-04-24T11:37:41;1.20;;;1.10;;
12296;SDS011;6211;49.124;9.152;2023-04-24T11:40:11;1.48;;;1.35;;
12296;SDS011;6211;49.124;9.152;2023-04-24T11:42:39;1.35;;;1.25;;
12296;SDS011;6211;49.124;9.152;2023-04-24T11:45:07;2.88;;;1.30;;
12296;SDS011;6211;49.124;9.152;2023-04-24T11:47:34;1.55;;;1.40;;
12296;SDS011;6211;49.124;9.152;2023-04-24T11:50:02;1.55;;;1.45;;
12296;SDS011;6211;49.124;9.152;2023-04-24T11:52:30;1.50;;;1.35;;
12296;SDS011;6211;49.124;9.152;2023-04-24T11:54:58;1.33;;;1.23;;
12296;SDS011;6211;49.124;9.152;2023-04-24T11:57:26;2.00;;;1.40;;
12296;SDS011;6211;49.124;9.152;2023-04-24T11:59:58;1.40;;;1.27;;
12296;SDS011;6211;49.124;9.152;2023-04-24T12:02:25;1.05;;;1.00;;
12296;SDS011;6211;49.124;9.152;2023-04-24T12:04:53;0.90;;;0.90;;
12296;SDS011;6211;49.124;9.152;2023-04-24T12:07:20;1.73;;;1.10;;
12296;SDS011;6211;49.124;9.152;2023-04-24T12:09:48;1.45;;;1.33;;
12296;SDS011;6211;49.124;9.152;2023-04-24T12:12:17;2.53;;;1.30;;
12296;SDS011;6211;49.124;9.152;2023-04-24T12:14:45;1.77;;;1.30;;
12296;SDS011;6211;49.124;9.152;2023-04-24T12:17:14;1.45;;;1.35;;
12296;SDS011;6211;49.124;9.152;2023-04-24T12:19:44;1.58;;;1.38;;
12296;SDS011;6211;49.124;9.152;2023-04-24T12:22:12;1.48;;;1.38;;
12296;SDS011;6211;49.124;9.152;2023-04-24T12:27:23;1.30;;;1.20;;
12296;SDS011;6211;49.124;9.152;2023-04-24T12:29:53;1.90;;;1.70;;
12296;SDS011;6211;49.124;9.152;2023-04-24T12:32:22;2.17;;;1.70;;
12296;SDS011;6211;49.124;9.152;2023-04-24T12:34:50;1.70;;;1.60;;
12296;SDS011;6211;49.124;9.152;2023-04-24T12:37:17;1.92;;;1.60;;
12296;SDS011;6211;49.124;9.152;2023-04-24T12:39:57;1.73;;;1.60;;
12296;SDS011;6211;49.124;9.152;2023-04-24T12:42:27;1.67;;;1.58;;
12296;SDS011;6211;49.124;9.152;2023-04-24T12:44:55;2.47;;;1.65;;
12296;SDS011;6211;49.124;9.152;2023-04-24T12:47:23;1.98;;;1.42;;
12296;SDS011;6211;49.124;9.152;2023-04-24T12:49:51;2.80;;;1.73;;
12296;SDS011;6211;49.124;9.152;2023-04-24T12:52:18;1.83;;;1.67;;
12296;SDS011;6211;49.124;9.152;2023-04-24T12:54:46;1.58;;;1.48;;
12296;SDS011;6211;49.124;9.152;2023-04-24T12:57:13;2.17;;;1.90;;
12296;SDS011;6211;49.124;9.152;2023-04-24T12:59:41;1.25;;;1.15;;
12296;SDS011;6211;49.124;9.152;2023-04-24T13:02:08;1.67;;;1.58;;
12296;SDS011;6211;49.124;9.152;2023-04-24T13:04:36;2.08;;;1.63;;
12296;SDS011;6211;49.124;9.152;2023-04-24T13:07:03;1.50;;;1.40;;
12296;SDS011;6211;49.124;9.152;2023-04-24T13:09:30;1.30;;;1.20;;
12296;SDS011;6211;49.124;9.152;2023-04-24T13:11:58;1.52;;;1.42;;
12296;SDS011;6211;49.124;9.152;2023-04-24T13:14:26;1.48;;;1.38;;
12296;SDS011;6211;49.124;9.152;2023-04-24T13:16:55;1.48;;;1.38;;
12296;SDS011;6211;49.124;9.152;2023-04-24T13:19:23;3.15;;;1.50;;
12296;SDS011;6211;49.124;9.152;2023-04-24T13:21:51;1.85;;;1.70;;
12296;SDS011;6211;49.124;9.152;2023-04-24T13:24:18;2.67;;;1.70;;
12296;SDS011;6211;49.124;9.152;2023-04-24T13:26:45;4.18;;;1.77;;
12296;SDS011;6211;49.124;9.152;2023-04-24T13:29:12;1.55;;;1.45;;
12296;SDS011;6211;49.124;9.152;2023-04-24T13:31:39;1.77;;;1.52;;
12296;SDS011;6211;49.124;9.152;2023-04-24T13:34:08;1.60;;;1.50;;
12296;SDS011;6211;49.124;9.152;2023-04-24T13:36:35;4.28;;;1.70;;
12296;SDS011;6211;49.124;9.152;2023-04-24T13:39:02;1.80;;;1.65;;
12296;SDS011;6211;49.124;9.152;2023-04-24T13:41:30;2.88;;;1.83;;
12296;SDS011;6211;49.124;9.152;2023-04-24T13:43:57;1.58;;;1.38;;
12296;SDS011;6211;49.124;9.152;2023-04-24T13:46:25;2.78;;;1.60;;
12296;SDS011;6211;49.124;9.152;2023-04-24T13:48:52;1.67;;;1.40;;
12296;SDS011;6211;49.124;9.152;2023-04-24T13:51:20;1.73;;;1.63;;
12296;SDS011;6211;49.124;9.152;2023-04-24T13:53:47;1.55;;;1.33;;
12296;SDS011;6211;49.124;9.152;2023-04-24T13:56:15;2.08;;;1.40;;
12296;SDS011;6211;49.124;9.152;2023-04-24T13:58:42;2.00;;;1.80;;
12296;SDS011;6211;49.124;9.152;2023-04-24T14:01:09;2.20;;;1.90;;
12296;SDS011;6211;49.124;9.152;2023-04-24T14:03:36;3.72;;;1.70;;
12296;SDS011;6211;49.124;9.152;2023-04-24T14:06:04;2.70;;;1.92;;
12296;SDS011;6211;49.124;9.152;2023-04-24T14:08:33;1.55;;;1.45;;
12296;SDS011;6211;49.124;9.152;2023-04-24T14:11:00;1.27;;;1.17;;
12296;SDS011;6211;49.124;9.152;2023-04-24T14:13:27;2.13;;;1.30;;
12296;SDS011;6211;49.124;9.152;2023-04-24T14:15:55;1.30;;;1.20;;
12296;SDS011;6211;49.124;9.152;2023-04-24T14:18:22;1.30;;;1.20;;
12296;SDS011;6211;49.124;9.152;2023-04-24T14:20:49;1.40;;;1.20;;
12296;SDS011;6211;49.124;9.152;2023-04-24T14:23:16;1.58;;;1.40;;
12296;SDS011;6211;49.124;9.152;2023-04-24T14:25:44;1.23;;;1.13;;
12296;SDS011;6211;49.124;9.152;2023-04-24T14:28:15;1.30;;;1.20;;
12296;SDS011;6211;49.124;9.152;2023-04-24T14:30:42;2.00;;;1.00;;
12296;SDS011;6211;49.124;9.152;2023-04-24T14:33:10;3.58;;;1.73;;
12296;SDS011;6211;49.124;9.152;2023-04-24T14:35:38;2.47;;;1.65;;
12296;SDS011;6211;49.124;9.152;2023-04-24T14:38:07;1.83;;;1.70;;
12296;SDS011;6211;49.124;9.152;2023-04-24T14:40:34;2.63;;;1.60;;
12296;SDS011;6211;49.124;9.152;2023-04-24T14:43:02;1.83;;;1.38;;
12296;SDS011;6211;49.124;9.152;2023-04-24T14:45:30;1.48;;;1.30;;
12296;SDS011;6211;49.124;9.152;2023-04-24T14:47:57;1.55;;;1.45;;
12296;SDS011;6211;49.124;9.152;2023-04-24T14:50:24;2.42;;;1.50;;
12296;SDS011;6211;49.124;9.152;2023-04-24T14:52:52;1.48;;;1.38;;
12296;SDS011;6211;49.124;9.152;2023-04-24T14:55:20;6.45;;;2.60;;
12296;SDS011;6211;49.124;9.152;2023-04-24T14:57:47;1.73;;;1.42;;
12296;SDS011;6211;49.124;9.152;2023-04-24T15:00:16;6.93;;;1.95;;
12296;SDS011;6211;49.124;9.152;2023-04-24T15:02:45;2.80;;;1.67;;
12296;SDS011;6211;49.124;9.152;2023-04-24T15:05:12;1.55;;;1.45;;
12296;SDS011;6211;49.124;9.152;2023-04-24T15:07:39;3.53;;;1.60;;
12296;SDS011;6211;49.124;9.152;2023-04-24T15:10:07;3.78;;;1.58;;